Terminal Aerodrome Forecast
Issued by NWS Flagstaff, AZ

Home | Current Version | Previous Version | Text Only | Print | Product List | Glossary On
Versions: 1 2 3 4 5 6 7 8 9 10 11 12
978
FTUS45 KFGZ 232338
TAFFLG
TAF
KFLG 232338Z 2400/2424 23023G35KT P6SM FEW250
     FM240200 23016G23KT P6SM FEW250
     FM240600 23009KT P6SM FEW250
     FM241600 22017G25KT P6SM SCT250
     FM241800 23023G33KT P6SM BKN200=

USA.gov is the U.S. government's official web portal to all federal, state and local government web resources and services.